createdAt,value
2019-06-08T00:00:04.285Z,0.00
2019-06-08T00:01:04.253Z,0.00
2019-06-08T00:02:04.242Z,0.00
2019-06-08T00:03:04.237Z,0.00
2019-06-08T00:04:04.227Z,0.00
2019-06-08T00:05:04.234Z,0.00
2019-06-08T00:06:04.218Z,0.00
2019-06-08T00:07:04.187Z,0.00
2019-06-08T00:08:04.176Z,0.00
2019-06-08T00:09:04.167Z,0.00
2019-06-08T00:10:04.177Z,0.00
2019-06-08T00:11:04.143Z,0.00
2019-06-08T00:12:04.135Z,0.00
2019-06-08T00:13:04.121Z,0.00
2019-06-08T00:14:04.110Z,0.00
2019-06-08T00:15:04.123Z,0.00
2019-06-08T00:16:04.094Z,0.00
2019-06-08T00:17:04.079Z,0.00
2019-06-08T00:18:04.069Z,0.00
2019-06-08T00:19:04.055Z,0.00
2019-06-08T00:20:04.068Z,0.00
2019-06-08T00:21:04.032Z,0.00
2019-06-08T00:22:04.023Z,0.00
2019-06-08T00:23:04.016Z,0.00
2019-06-08T00:24:04.008Z,0.00
2019-06-08T00:25:04.014Z,0.00
2019-06-08T00:26:04.002Z,0.00
2019-06-08T00:27:03.969Z,0.00
2019-06-08T00:28:03.958Z,0.00
2019-06-08T00:29:03.949Z,0.00
2019-06-08T00:30:03.937Z,0.00
2019-06-08T00:31:03.947Z,0.00
2019-06-08T00:32:03.911Z,0.00
2019-06-08T00:33:03.905Z,0.00
2019-06-08T00:34:03.897Z,0.00
2019-06-08T00:35:03.881Z,0.00
2019-06-08T00:36:03.890Z,0.00
2019-06-08T00:37:03.858Z,0.00
2019-06-08T00:38:03.851Z,0.00
2019-06-08T00:39:03.837Z,0.00
2019-06-08T00:40:03.822Z,0.00
2019-06-08T00:41:03.837Z,0.00
2019-06-08T00:42:03.803Z,0.00
2019-06-08T00:43:03.792Z,0.00
2019-06-08T00:44:03.790Z,0.00
2019-06-08T00:45:03.783Z,0.00
2019-06-08T00:46:03.781Z,0.00
2019-06-08T00:47:03.748Z,0.00
2019-06-08T00:48:03.737Z,0.00
2019-06-08T00:49:03.729Z,0.00
2019-06-08T00:50:03.714Z,0.00
2019-06-08T00:51:03.722Z,0.00
2019-06-08T00:52:03.711Z,0.00
2019-06-08T00:53:03.694Z,0.00
2019-06-08T00:54:03.673Z,0.00
2019-06-08T00:55:03.657Z,0.00
2019-06-08T00:56:03.674Z,0.00
2019-06-08T00:57:03.638Z,0.00
2019-06-08T00:58:03.630Z,0.00
2019-06-08T00:59:03.621Z,0.00
2019-06-08T01:00:10.193Z,0.00
2019-06-08T01:01:04.627Z,0.00
2019-06-08T01:02:03.580Z,0.00
2019-06-08T01:03:03.568Z,0.00
2019-06-08T01:04:03.561Z,0.00
2019-06-08T01:05:03.550Z,0.00
2019-06-08T01:06:03.539Z,0.00
2019-06-08T01:07:03.552Z,0.00
2019-06-08T01:08:03.828Z,0.00
2019-06-08T01:09:03.503Z,0.00
2019-06-08T01:10:03.497Z,0.00
2019-06-08T01:11:03.542Z,0.00
2019-06-08T01:12:03.494Z,0.00
2019-06-08T01:13:03.462Z,0.00
2019-06-08T01:14:03.448Z,0.00
2019-06-08T01:15:03.505Z,0.00
2019-06-08T01:16:03.429Z,0.00
2019-06-08T01:17:03.442Z,0.00
2019-06-08T01:18:04.294Z,0.00
2019-06-08T01:19:03.395Z,0.00
2019-06-08T01:20:03.386Z,0.00
2019-06-08T01:21:03.375Z,0.00
2019-06-08T01:22:03.385Z,0.00
2019-06-08T01:23:03.348Z,0.00
2019-06-08T01:24:03.338Z,0.00
2019-06-08T01:25:03.393Z,0.00
2019-06-08T01:26:03.315Z,0.00
2019-06-08T01:27:03.329Z,0.00
2019-06-08T01:28:03.297Z,0.00
2019-06-08T01:29:03.283Z,0.00
2019-06-08T01:30:03.326Z,0.00
2019-06-08T01:31:03.273Z,0.00
2019-06-08T01:32:03.319Z,0.00
2019-06-08T01:33:03.384Z,0.00
2019-06-08T01:34:03.231Z,0.00
2019-06-08T01:35:03.224Z,0.00
2019-06-08T01:36:03.210Z,0.00
2019-06-08T01:37:03.231Z,0.00
2019-06-08T01:38:03.196Z,0.00
2019-06-08T01:39:03.174Z,0.00
2019-06-08T01:40:03.165Z,0.00
2019-06-08T01:41:03.156Z,0.00
2019-06-08T01:42:03.164Z,0.00
2019-06-08T01:43:03.148Z,0.00
2019-06-08T01:44:03.121Z,0.00
2019-06-08T01:45:03.635Z,0.00
2019-06-08T01:46:03.095Z,0.00
2019-06-08T01:47:03.088Z,0.00
2019-06-08T01:48:18.830Z,0.00
2019-06-08T01:49:04.064Z,0.00
2019-06-08T01:50:03.051Z,0.00
2019-06-08T01:51:03.331Z,0.00
2019-06-08T01:52:03.034Z,0.00
2019-06-08T01:53:03.058Z,0.00
2019-06-08T01:54:03.010Z,0.00
2019-06-08T01:55:02.997Z,0.00
2019-06-08T01:56:02.987Z,0.00
2019-06-08T01:57:02.985Z,0.00
2019-06-08T01:58:02.985Z,0.00
2019-06-08T01:59:02.961Z,0.00
2019-06-08T02:00:28.722Z,0.00
2019-06-08T02:01:03.931Z,0.00
2019-06-08T02:02:02.943Z,0.00
2019-06-08T02:03:02.931Z,0.00
2019-06-08T02:04:02.896Z,0.00
2019-06-08T02:05:02.885Z,0.00
2019-06-08T02:06:02.948Z,0.00
2019-06-08T02:07:02.884Z,0.00
2019-06-08T02:08:02.856Z,0.00
2019-06-08T02:09:02.863Z,0.00
2019-06-08T02:10:02.833Z,0.00
2019-06-08T02:11:02.833Z,0.00
2019-06-08T02:12:02.807Z,0.00
2019-06-08T02:13:02.799Z,0.00
2019-06-08T02:14:02.808Z,0.00
2019-06-08T02:15:02.786Z,0.00
2019-06-08T02:16:02.769Z,0.00
2019-06-08T02:17:02.755Z,0.00
2019-06-08T02:18:02.744Z,0.00
2019-06-08T02:19:02.754Z,0.00
2019-06-08T02:20:02.719Z,0.00
2019-06-08T02:21:02.713Z,0.00
2019-06-08T02:22:02.697Z,0.00
2019-06-08T02:23:02.686Z,0.00
2019-06-08T02:24:02.696Z,0.00
2019-06-08T02:25:02.670Z,0.00
2019-06-08T02:26:02.658Z,0.00
2019-06-08T02:27:02.642Z,0.00
2019-06-08T02:28:02.728Z,0.00
2019-06-08T02:29:02.642Z,0.00
2019-06-08T02:30:02.631Z,0.00
2019-06-08T02:31:02.604Z,0.00
2019-06-08T02:32:02.595Z,0.00
2019-06-08T02:33:02.581Z,0.00
2019-06-08T02:34:02.607Z,0.00
2019-06-08T02:35:02.560Z,0.00
2019-06-08T02:36:02.549Z,0.00
2019-06-08T02:37:02.537Z,0.00
2019-06-08T02:38:02.531Z,0.00
2019-06-08T02:39:02.535Z,0.00
2019-06-08T02:40:02.503Z,0.00
2019-06-08T02:41:02.493Z,0.00
2019-06-08T02:42:02.482Z,0.00
2019-06-08T02:43:02.490Z,0.00
2019-06-08T02:44:02.461Z,0.00
2019-06-08T02:45:02.470Z,0.00
2019-06-08T02:46:02.451Z,0.00
2019-06-08T02:47:02.427Z,0.00
2019-06-08T02:48:02.413Z,0.00
2019-06-08T02:49:04.431Z,0.00
2019-06-08T02:50:02.418Z,0.00
2019-06-08T02:51:02.382Z,0.00
2019-06-08T02:52:02.369Z,0.00
2019-06-08T02:53:02.366Z,0.00
2019-06-08T02:54:02.350Z,0.00
2019-06-08T02:55:02.370Z,0.00
2019-06-08T02:56:02.340Z,0.00
2019-06-08T02:57:02.318Z,0.00
2019-06-08T02:58:02.303Z,0.00
2019-06-08T02:59:02.296Z,0.00
2019-06-08T03:00:02.311Z,0.00
2019-06-08T03:01:02.282Z,0.00
2019-06-08T03:02:02.257Z,0.00
2019-06-08T03:03:02.252Z,0.00
2019-06-08T03:04:02.243Z,0.00
2019-06-08T03:05:02.249Z,0.00
2019-06-08T03:06:02.216Z,0.00
2019-06-08T03:07:02.206Z,0.00
2019-06-08T03:08:02.197Z,0.00
2019-06-08T03:09:02.199Z,0.00
2019-06-08T03:10:02.192Z,0.00
2019-06-08T03:11:02.159Z,4.00
2019-06-08T03:12:02.149Z,4.00
2019-06-08T03:13:02.160Z,4.00
2019-06-08T03:14:02.130Z,4.00
2019-06-08T03:15:02.119Z,4.00
2019-06-08T03:16:02.132Z,4.00
2019-06-08T03:17:02.101Z,4.00
2019-06-08T03:18:02.106Z,4.00
2019-06-08T03:19:20.156Z,4.00
2019-06-08T03:20:03.069Z,4.00
2019-06-08T03:21:02.080Z,4.00
2019-06-08T03:22:02.039Z,4.00
2019-06-08T03:23:02.029Z,4.00
2019-06-08T03:24:02.022Z,8.00
2019-06-08T03:25:02.017Z,8.00
2019-06-08T03:26:02.019Z,8.00
2019-06-08T03:27:01.985Z,8.00
2019-06-08T03:28:01.975Z,4.00
2019-06-08T03:29:01.969Z,8.00
2019-06-08T03:30:15.235Z,8.00
2019-06-08T03:31:02.960Z,8.00
2019-06-08T03:32:01.936Z,8.00
2019-06-08T03:33:01.968Z,4.00
2019-06-08T03:34:01.937Z,4.00
2019-06-08T03:35:01.900Z,4.00
2019-06-08T03:36:01.908Z,8.00
2019-06-08T03:37:01.880Z,8.00
2019-06-08T03:38:01.865Z,8.00
2019-06-08T03:39:01.857Z,4.00
2019-06-08T03:40:01.842Z,4.00
2019-06-08T03:41:01.866Z,4.00
2019-06-08T03:42:01.840Z,4.00
2019-06-08T03:43:01.907Z,4.00
2019-06-08T03:44:01.801Z,8.00
2019-06-08T03:45:01.794Z,8.00
2019-06-08T03:46:01.780Z,8.00
2019-06-08T03:47:01.794Z,8.00
2019-06-08T03:48:01.755Z,8.00
2019-06-08T03:49:01.743Z,8.00
2019-06-08T03:50:01.749Z,12.00
2019-06-08T03:51:01.720Z,16.00
2019-06-08T03:52:01.734Z,12.00
2019-06-08T03:53:01.698Z,12.00
2019-06-08T03:54:01.695Z,12.00
2019-06-08T03:55:01.678Z,12.00
2019-06-08T03:56:01.673Z,16.00
2019-06-08T03:57:01.681Z,24.00
2019-06-08T03:58:01.642Z,28.00
2019-06-08T03:59:01.635Z,24.00
2019-06-08T04:00:01.619Z,28.00
2019-06-08T04:01:01.609Z,24.00
2019-06-08T04:02:01.620Z,20.00
2019-06-08T04:03:01.589Z,24.00
2019-06-08T04:04:01.579Z,28.00
2019-06-08T04:05:01.593Z,24.00
2019-06-08T04:06:01.566Z,24.00
2019-06-08T04:07:01.565Z,20.00
2019-06-08T04:08:01.535Z,28.00
2019-06-08T04:09:01.524Z,24.00
2019-06-08T04:10:01.512Z,20.00
2019-06-08T04:11:01.502Z,24.00
2019-06-08T04:12:01.513Z,24.00
2019-06-08T04:13:01.509Z,24.00
2019-06-08T04:14:01.470Z,20.00
2019-06-08T04:15:01.474Z,32.00
2019-06-08T04:16:01.448Z,24.00
2019-06-08T04:17:01.454Z,20.00
2019-06-08T04:18:01.422Z,16.00
2019-06-08T04:19:01.419Z,24.00
2019-06-08T04:20:10.340Z,32.00
2019-06-08T04:21:02.394Z,24.00
2019-06-08T04:22:01.399Z,32.00
2019-06-08T04:23:01.380Z,36.00
2019-06-08T04:24:01.362Z,36.00
2019-06-08T04:25:01.350Z,36.00
2019-06-08T04:26:01.337Z,52.00
2019-06-08T04:27:01.367Z,56.00
2019-06-08T04:28:01.314Z,64.00
2019-06-08T04:29:01.306Z,64.00
2019-06-08T04:30:01.292Z,72.00
2019-06-08T04:31:01.295Z,56.00
2019-06-08T04:32:01.291Z,60.00
2019-06-08T04:33:01.264Z,60.00
2019-06-08T04:34:01.279Z,80.00
2019-06-08T04:35:01.237Z,68.00
2019-06-08T04:36:01.228Z,108.00
2019-06-08T04:37:01.217Z,84.00
2019-06-08T04:38:01.225Z,68.00
2019-06-08T04:39:01.198Z,92.00
2019-06-08T04:40:01.188Z,88.00
2019-06-08T04:41:01.173Z,100.00
2019-06-08T04:42:01.158Z,128.00
2019-06-08T04:43:01.169Z,96.00
2019-06-08T04:44:01.140Z,80.00
2019-06-08T04:45:01.127Z,92.00
2019-06-08T04:46:01.118Z,136.00
2019-06-08T04:47:01.108Z,92.00
2019-06-08T04:48:01.116Z,100.00
2019-06-08T04:49:01.103Z,156.00
2019-06-08T04:50:20.262Z,116.00
2019-06-08T04:51:02.069Z,96.00
2019-06-08T04:52:01.053Z,92.00
2019-06-08T04:53:01.058Z,96.00
2019-06-08T04:54:01.035Z,108.00
2019-06-08T04:55:01.022Z,116.00
2019-06-08T04:56:01.009Z,128.00
2019-06-08T04:57:00.995Z,132.00
2019-06-08T04:58:01.016Z,128.00
2019-06-08T04:59:00.973Z,148.00
2019-06-08T05:00:11.091Z,184.00
2019-06-08T05:01:01.948Z,220.00
2019-06-08T05:02:00.941Z,168.00
2019-06-08T05:03:00.952Z,152.00
2019-06-08T05:04:00.920Z,168.00
2019-06-08T05:05:00.910Z,192.00
2019-06-08T05:06:00.896Z,120.00
2019-06-08T05:07:00.890Z,120.00
2019-06-08T05:08:00.898Z,124.00
2019-06-08T05:09:00.880Z,108.00
2019-06-08T05:10:00.851Z,88.00
2019-06-08T05:11:00.841Z,92.00
2019-06-08T05:12:00.832Z,92.00
2019-06-08T05:13:00.841Z,108.00
2019-06-08T05:14:00.808Z,136.00
2019-06-08T05:15:00.796Z,164.00
2019-06-08T05:16:00.789Z,172.00
2019-06-08T05:17:00.778Z,176.00
2019-06-08T05:18:00.793Z,176.00
2019-06-08T05:19:00.752Z,208.00
2019-06-08T05:20:00.744Z,220.00
2019-06-08T05:21:00.736Z,212.00
2019-06-08T05:22:00.719Z,200.00
2019-06-08T05:23:00.729Z,188.00
2019-06-08T05:24:00.708Z,172.00
2019-06-08T05:25:00.689Z,180.00
2019-06-08T05:26:00.675Z,180.00
2019-06-08T05:27:00.673Z,184.00
2019-06-08T05:28:00.655Z,168.00
2019-06-08T05:29:00.695Z,164.00
2019-06-08T05:30:08.076Z,200.00
2019-06-08T05:31:01.618Z,176.00
2019-06-08T05:32:00.610Z,188.00
2019-06-08T05:33:00.604Z,200.00
2019-06-08T05:34:00.610Z,208.00
2019-06-08T05:35:00.575Z,188.00
2019-06-08T05:36:00.568Z,212.00
2019-06-08T05:37:00.554Z,196.00
2019-06-08T05:38:00.543Z,216.00
2019-06-08T05:39:00.551Z,220.00
2019-06-08T05:40:00.535Z,200.00
2019-06-08T05:41:00.512Z,224.00
2019-06-08T05:42:00.502Z,256.00
2019-06-08T05:43:00.486Z,236.00
2019-06-08T05:44:00.501Z,252.00
2019-06-08T05:45:00.466Z,280.00
2019-06-08T05:46:00.457Z,264.00
2019-06-08T05:47:00.443Z,280.00
2019-06-08T05:48:00.433Z,276.00
2019-06-08T05:49:00.444Z,272.00
2019-06-08T05:50:00.414Z,272.00
2019-06-08T05:51:04.167Z,288.00
2019-06-08T05:52:00.388Z,284.00
2019-06-08T05:53:00.379Z,288.00
2019-06-08T05:54:02.985Z,312.00
2019-06-08T05:55:00.354Z,304.00
2019-06-08T05:56:00.367Z,324.00
2019-06-08T05:57:00.333Z,348.00
2019-06-08T05:58:00.322Z,352.00
2019-06-08T05:59:00.331Z,336.00
2019-06-08T06:00:00.302Z,324.00
2019-06-08T06:01:00.288Z,304.00
2019-06-08T06:02:00.280Z,304.00
2019-06-08T06:03:00.269Z,316.00
2019-06-08T06:04:00.279Z,316.00
2019-06-08T06:05:00.247Z,316.00
2019-06-08T06:06:00.236Z,300.00
2019-06-08T06:07:00.224Z,260.00
2019-06-08T06:08:00.214Z,268.00
2019-06-08T06:09:00.223Z,288.00
2019-06-08T06:10:00.188Z,300.00
2019-06-08T06:11:00.178Z,300.00
2019-06-08T06:12:00.171Z,272.00
2019-06-08T06:13:00.154Z,264.00
2019-06-08T06:14:00.165Z,260.00
2019-06-08T06:15:00.135Z,272.00
2019-06-08T06:16:00.125Z,292.00
2019-06-08T06:17:00.115Z,296.00
2019-06-08T06:18:00.103Z,256.00
2019-06-08T06:19:00.112Z,156.00
2019-06-08T06:20:00.081Z,188.00
2019-06-08T06:21:10.252Z,216.00
2019-06-08T06:22:01.055Z,168.00
2019-06-08T06:23:00.049Z,152.00
2019-06-08T06:24:00.054Z,192.00
2019-06-08T06:25:00.027Z,184.00
2019-06-08T06:26:00.014Z,204.00
2019-06-08T06:27:00.001Z,228.00
2019-06-08T06:27:59.992Z,292.00
2019-06-08T06:29:00.017Z,352.00
2019-06-08T06:29:59.970Z,240.00
2019-06-08T06:30:59.956Z,248.00
2019-06-08T06:31:59.948Z,224.00
2019-06-08T06:32:59.941Z,260.00
2019-06-08T06:33:59.946Z,264.00
2019-06-08T06:34:59.917Z,264.00
2019-06-08T06:35:59.901Z,228.00
2019-06-08T06:36:59.893Z,280.00
2019-06-08T06:37:59.881Z,316.00
2019-06-08T06:38:59.902Z,376.00
2019-06-08T06:39:59.859Z,296.00
2019-06-08T06:40:59.859Z,312.00
2019-06-08T06:41:59.838Z,412.00
2019-06-08T06:42:59.856Z,368.00
2019-06-08T06:43:59.810Z,368.00
2019-06-08T06:44:59.835Z,332.00
2019-06-08T06:45:59.790Z,404.00
2019-06-08T06:46:59.781Z,360.00
2019-06-08T06:47:59.768Z,292.00
2019-06-08T06:48:59.756Z,288.00
2019-06-08T06:49:59.770Z,320.00
2019-06-08T06:50:59.737Z,288.00
2019-06-08T06:51:59.725Z,308.00
2019-06-08T06:52:59.723Z,332.00
2019-06-08T06:53:59.701Z,292.00
2019-06-08T06:54:59.714Z,288.00
2019-06-08T06:55:59.687Z,268.00
2019-06-08T06:56:59.701Z,256.00
2019-06-08T06:57:59.660Z,244.00
2019-06-08T06:58:59.644Z,228.00
2019-06-08T06:59:59.661Z,216.00
2019-06-08T07:00:59.629Z,208.00
2019-06-08T07:01:59.612Z,240.00
2019-06-08T07:02:59.602Z,232.00
2019-06-08T07:03:59.590Z,224.00
2019-06-08T07:04:59.614Z,268.00
2019-06-08T07:05:59.569Z,240.00
2019-06-08T07:06:59.559Z,248.00
2019-06-08T07:07:59.557Z,240.00
2019-06-08T07:08:59.539Z,216.00
2019-06-08T07:09:59.548Z,300.00
2019-06-08T07:10:59.515Z,284.00
2019-06-08T07:11:59.502Z,300.00
2019-06-08T07:12:59.515Z,392.00
2019-06-08T07:13:59.480Z,292.00
2019-06-08T07:14:59.482Z,248.00
2019-06-08T07:16:16.916Z,212.00
2019-06-08T07:17:00.444Z,192.00
2019-06-08T07:17:59.438Z,276.00
2019-06-08T07:18:59.424Z,376.00
2019-06-08T07:19:59.413Z,452.00
2019-06-08T07:20:59.422Z,260.00
2019-06-08T07:21:59.409Z,336.00
2019-06-08T07:22:59.383Z,388.00
2019-06-08T07:23:59.373Z,276.00
2019-06-08T07:24:59.362Z,192.00
2019-06-08T07:25:59.368Z,232.00
2019-06-08T07:26:59.341Z,232.00
2019-06-08T07:27:59.457Z,264.00
2019-06-08T07:28:59.314Z,240.00
2019-06-08T07:29:59.305Z,188.00
2019-06-08T07:30:59.312Z,216.00
2019-06-08T07:31:59.413Z,324.00
2019-06-08T07:32:59.491Z,0.00
2019-06-08T07:34:00.045Z,260.00
2019-06-08T07:34:59.422Z,220.00
2019-06-08T07:35:59.887Z,208.00
2019-06-08T07:36:59.587Z,304.00
2019-06-08T07:37:59.772Z,320.00
2019-06-08T07:38:59.668Z,252.00
2019-06-08T07:40:00.167Z,180.00
2019-06-08T07:41:01.425Z,200.00
2019-06-08T07:42:00.029Z,224.00
2019-06-08T07:43:00.422Z,336.00
2019-06-08T07:43:59.151Z,184.00
2019-06-08T07:45:00.393Z,356.00
2019-06-08T07:45:59.158Z,256.00
2019-06-08T07:47:00.144Z,220.00
2019-06-08T07:48:00.486Z,256.00
2019-06-08T07:48:59.093Z,276.00
2019-06-08T07:49:59.561Z,240.00
2019-06-08T07:50:59.095Z,296.00
2019-06-08T07:52:09.425Z,292.00
2019-06-08T07:53:00.048Z,304.00
2019-06-08T07:53:59.930Z,196.00
2019-06-08T07:54:59.026Z,208.00
2019-06-08T07:55:59.798Z,220.00
2019-06-08T07:56:59.184Z,448.00
2019-06-08T07:58:00.264Z,380.00
2019-06-08T07:58:59.091Z,472.00
2019-06-08T08:00:00.171Z,416.00
2019-06-08T08:01:07.337Z,340.00
2019-06-08T08:01:59.950Z,304.00
2019-06-08T08:02:58.940Z,192.00
2019-06-08T08:03:58.929Z,208.00
2019-06-08T08:04:58.957Z,272.00
2019-06-08T08:05:58.906Z,200.00
2019-06-08T08:06:58.937Z,196.00
2019-06-08T08:07:59.085Z,264.00
2019-06-08T08:08:58.977Z,256.00
2019-06-08T08:09:58.931Z,384.00
2019-06-08T08:10:58.852Z,264.00
2019-06-08T08:11:59.622Z,244.00
2019-06-08T08:12:58.991Z,256.00
2019-06-08T08:13:59.166Z,148.00
2019-06-08T08:14:59.765Z,272.00
2019-06-08T08:16:00.634Z,236.00
2019-06-08T08:16:59.136Z,248.00
2019-06-08T08:17:59.636Z,184.00
2019-06-08T08:18:59.753Z,180.00
2019-06-08T08:19:59.390Z,232.00
2019-06-08T08:21:07.403Z,240.00
2019-06-08T08:22:03.176Z,264.00
2019-06-08T08:23:05.535Z,280.00
2019-06-08T08:24:01.484Z,344.00
2019-06-08T08:25:03.260Z,548.00
2019-06-08T08:26:01.731Z,456.00
2019-06-08T08:27:01.995Z,356.00
2019-06-08T08:28:01.006Z,384.00
2019-06-08T08:29:01.302Z,236.00
2019-06-08T08:30:01.121Z,204.00
2019-06-08T08:31:01.601Z,204.00
2019-06-08T08:32:00.673Z,212.00
2019-06-08T08:33:01.758Z,220.00
2019-06-08T08:34:05.364Z,248.00
2019-06-08T08:35:02.737Z,216.00
2019-06-08T08:36:00.618Z,188.00
2019-06-08T08:37:04.022Z,204.00
2019-06-08T08:38:03.898Z,176.00
2019-06-08T08:39:01.038Z,208.00
2019-06-08T08:40:00.264Z,264.00
2019-06-08T08:41:06.289Z,196.00
2019-06-08T08:42:04.527Z,264.00
2019-06-08T08:43:01.475Z,572.00
2019-06-08T08:44:04.166Z,420.00
2019-06-08T08:45:04.740Z,356.00
2019-06-08T08:46:01.843Z,476.00
2019-06-08T08:47:00.564Z,436.00
2019-06-08T08:48:14.402Z,456.00
2019-06-08T08:49:08.425Z,512.00
2019-06-08T08:50:01.899Z,572.00
2019-06-08T08:51:00.750Z,596.00
2019-06-08T08:52:00.055Z,572.00
2019-06-08T08:53:00.391Z,568.00
2019-06-08T08:54:03.464Z,548.00
2019-06-08T08:55:00.935Z,480.00
2019-06-08T08:56:01.239Z,640.00
2019-06-08T08:57:04.463Z,584.00
2019-06-08T08:58:00.892Z,604.00
2019-06-08T08:59:00.913Z,432.00
2019-06-08T09:00:03.508Z,484.00
2019-06-08T09:01:01.619Z,328.00
2019-06-08T09:02:01.044Z,344.00
2019-06-08T09:03:13.182Z,508.00
2019-06-08T09:04:03.289Z,648.00
2019-06-08T09:05:01.981Z,664.00
2019-06-08T09:06:00.590Z,404.00
2019-06-08T09:07:05.671Z,308.00
2019-06-08T09:08:02.066Z,292.00
2019-06-08T09:09:00.849Z,276.00
2019-06-08T09:10:00.588Z,212.00
2019-06-08T09:11:01.739Z,188.00
2019-06-08T09:12:02.231Z,172.00
2019-06-08T09:13:02.954Z,172.00
2019-06-08T09:14:05.203Z,220.00
2019-06-08T09:15:01.763Z,220.00
2019-06-08T09:16:00.765Z,240.00
2019-06-08T09:17:01.522Z,176.00
2019-06-08T09:18:00.957Z,228.00
2019-06-08T09:19:01.012Z,328.00
2019-06-08T09:20:00.128Z,328.00
2019-06-08T09:21:00.344Z,256.00
2019-06-08T09:22:00.376Z,216.00
2019-06-08T09:23:06.702Z,364.00
2019-06-08T09:24:02.598Z,232.00
2019-06-08T09:25:01.155Z,328.00
2019-06-08T09:26:05.994Z,128.00
2019-06-08T09:27:00.946Z,192.00
2019-06-08T09:28:01.254Z,236.00
2019-06-08T09:29:01.086Z,196.00
2019-06-08T09:30:00.716Z,264.00
2019-06-08T09:31:00.343Z,276.00
2019-06-08T09:31:58.982Z,296.00
2019-06-08T09:33:00.584Z,228.00
2019-06-08T09:34:07.515Z,296.00
2019-06-08T09:35:02.346Z,480.00
2019-06-08T09:36:00.862Z,516.00
2019-06-08T09:37:00.163Z,364.00
2019-06-08T09:38:01.139Z,432.00
2019-06-08T09:39:02.695Z,328.00
2019-06-08T09:39:58.949Z,220.00
2019-06-08T09:41:01.233Z,292.00
2019-06-08T09:42:01.893Z,228.00
2019-06-08T09:43:05.398Z,276.00
2019-06-08T09:44:03.171Z,464.00
2019-06-08T09:45:01.961Z,572.00
2019-06-08T09:46:01.593Z,580.00
2019-06-08T09:47:00.975Z,492.00
2019-06-08T09:48:01.813Z,608.00
2019-06-08T09:49:04.807Z,616.00
2019-06-08T09:50:01.855Z,564.00
2019-06-08T09:51:00.423Z,640.00
2019-06-08T09:52:01.444Z,528.00
2019-06-08T09:53:18.239Z,568.00
2019-06-08T09:54:02.044Z,552.00
2019-06-08T09:55:02.298Z,672.00
2019-06-08T09:56:02.311Z,628.00
2019-06-08T09:57:02.070Z,712.00
2019-06-08T09:58:01.871Z,752.00
2019-06-08T09:59:02.758Z,488.00
2019-06-08T10:00:01.091Z,304.00
2019-06-08T10:01:01.999Z,356.00
2019-06-08T10:02:05.162Z,608.00
2019-06-08T10:03:02.186Z,692.00
2019-06-08T10:04:00.807Z,508.00
2019-06-08T10:05:00.542Z,676.00
2019-06-08T10:06:01.528Z,596.00
2019-06-08T10:07:00.571Z,392.00
2019-06-08T10:08:00.554Z,612.00
2019-06-08T10:08:58.528Z,640.00
2019-06-08T10:10:00.355Z,580.00
2019-06-08T10:11:01.406Z,432.00
2019-06-08T10:11:59.561Z,308.00
2019-06-08T10:13:01.305Z,248.00
2019-06-08T10:14:02.656Z,244.00
2019-06-08T10:14:58.784Z,432.00
2019-06-08T10:16:01.913Z,420.00
2019-06-08T10:17:00.770Z,448.00
2019-06-08T10:17:58.854Z,672.00
2019-06-08T10:19:00.402Z,552.00
2019-06-08T10:20:00.648Z,632.00
2019-06-08T10:20:59.428Z,656.00
2019-06-08T10:21:58.771Z,552.00
2019-06-08T10:23:01.217Z,588.00
2019-06-08T10:24:01.009Z,704.00
2019-06-08T10:25:02.143Z,708.00
2019-06-08T10:26:01.316Z,580.00
2019-06-08T10:26:57.375Z,368.00
2019-06-08T10:28:02.829Z,420.00
2019-06-08T10:29:01.189Z,488.00
2019-06-08T10:30:00.848Z,412.00
2019-06-08T10:30:59.647Z,360.00
2019-06-08T10:31:57.295Z,444.00
2019-06-08T10:33:00.449Z,564.00
2019-06-08T10:34:00.601Z,712.00
2019-06-08T10:35:00.345Z,400.00
2019-06-08T10:36:00.672Z,368.00
2019-06-08T10:36:58.897Z,528.00
2019-06-08T10:38:02.809Z,668.00
2019-06-08T10:39:02.726Z,732.00
2019-06-08T10:40:00.653Z,652.00
2019-06-08T10:41:04.754Z,660.00
2019-06-08T10:42:01.099Z,648.00
2019-06-08T10:42:59.852Z,640.00
2019-06-08T10:43:57.281Z,648.00
2019-06-08T10:45:02.701Z,496.00
2019-06-08T10:46:04.929Z,780.00
2019-06-08T10:47:01.354Z,516.00
2019-06-08T10:47:59.407Z,372.00
2019-06-08T10:48:57.413Z,528.00
2019-06-08T10:50:01.670Z,464.00
2019-06-08T10:51:00.414Z,488.00
2019-06-08T10:52:01.154Z,248.00
2019-06-08T10:53:02.141Z,284.00
2019-06-08T10:53:58.056Z,284.00
2019-06-08T10:54:59.786Z,440.00
2019-06-08T10:55:58.225Z,432.00
2019-06-08T10:56:59.769Z,740.00
2019-06-08T10:57:58.141Z,624.00
2019-06-08T10:58:58.051Z,448.00
2019-06-08T10:59:57.919Z,416.00
2019-06-08T11:00:59.694Z,280.00
2019-06-08T11:02:00.973Z,512.00
2019-06-08T11:03:01.337Z,572.00
2019-06-08T11:03:58.477Z,380.00
2019-06-08T11:04:58.802Z,564.00
2019-06-08T11:05:59.172Z,528.00
2019-06-08T11:07:01.031Z,616.00
2019-06-08T11:07:59.306Z,628.00
2019-06-08T11:08:58.550Z,736.00
2019-06-08T11:09:58.674Z,600.00
2019-06-08T11:10:57.898Z,500.00
2019-06-08T11:11:58.408Z,512.00
2019-06-08T11:12:58.247Z,652.00
2019-06-08T11:13:58.460Z,580.00
2019-06-08T11:14:58.399Z,836.00
2019-06-08T11:15:58.628Z,752.00
2019-06-08T11:16:56.806Z,592.00
2019-06-08T11:18:00.446Z,788.00
2019-06-08T11:18:59.106Z,700.00
2019-06-08T11:19:59.441Z,632.00
2019-06-08T11:20:59.499Z,440.00
2019-06-08T11:21:58.040Z,588.00
2019-06-08T11:22:58.359Z,484.00
2019-06-08T11:24:07.539Z,628.00
2019-06-08T11:24:58.853Z,692.00
2019-06-08T11:25:59.484Z,768.00
2019-06-08T11:26:59.617Z,744.00
2019-06-08T11:27:58.664Z,752.00
2019-06-08T11:28:58.673Z,408.00
2019-06-08T11:29:57.576Z,268.00
2019-06-08T11:30:56.692Z,356.00
2019-06-08T11:31:58.656Z,616.00
2019-06-08T11:32:57.691Z,736.00
2019-06-08T11:33:58.908Z,672.00
2019-06-08T11:34:56.596Z,680.00
2019-06-08T11:35:58.141Z,312.00
2019-06-08T11:36:59.632Z,272.00
2019-06-08T11:37:58.474Z,512.00
2019-06-08T11:38:58.802Z,560.00
2019-06-08T11:39:57.693Z,724.00
2019-06-08T11:40:57.520Z,776.00
2019-06-08T11:41:58.656Z,536.00
2019-06-08T11:42:58.528Z,716.00
2019-06-08T11:43:59.608Z,416.00
2019-06-08T11:44:58.510Z,440.00
2019-06-08T11:45:58.385Z,404.00
2019-06-08T11:46:57.521Z,360.00
2019-06-08T11:47:58.393Z,564.00
2019-06-08T11:48:57.690Z,604.00
2019-06-08T11:49:57.652Z,476.00
2019-06-08T11:50:58.370Z,596.00
2019-06-08T11:51:58.344Z,684.00
2019-06-08T11:53:00.090Z,668.00
2019-06-08T11:53:56.388Z,564.00
2019-06-08T11:54:57.343Z,596.00
2019-06-08T11:55:58.551Z,540.00
2019-06-08T11:56:57.602Z,388.00
2019-06-08T11:57:58.508Z,520.00
2019-06-08T11:58:57.949Z,384.00
2019-06-08T11:59:58.343Z,416.00
2019-06-08T12:01:00.833Z,504.00
2019-06-08T12:01:58.572Z,372.00
2019-06-08T12:02:58.110Z,432.00
2019-06-08T12:03:57.942Z,400.00
2019-06-08T12:04:57.258Z,504.00
2019-06-08T12:05:58.279Z,476.00
2019-06-08T12:06:58.309Z,632.00
2019-06-08T12:07:57.834Z,664.00
2019-06-08T12:08:57.335Z,376.00
2019-06-08T12:09:58.345Z,300.00
2019-06-08T12:11:01.187Z,324.00
2019-06-08T12:11:58.135Z,296.00
2019-06-08T12:12:57.418Z,392.00
2019-06-08T12:13:58.347Z,276.00
2019-06-08T12:14:58.210Z,220.00
2019-06-08T12:15:58.748Z,216.00
2019-06-08T12:16:58.145Z,224.00
2019-06-08T12:17:58.657Z,208.00
2019-06-08T12:18:58.430Z,428.00
2019-06-08T12:19:57.701Z,304.00
2019-06-08T12:20:58.332Z,296.00
2019-06-08T12:21:58.008Z,552.00
2019-06-08T12:22:56.097Z,384.00
2019-06-08T12:23:56.054Z,532.00
2019-06-08T12:24:56.050Z,448.00
2019-06-08T12:25:56.031Z,632.00
2019-06-08T12:27:07.503Z,608.00
2019-06-08T12:27:58.552Z,684.00
2019-06-08T12:28:57.965Z,600.00
2019-06-08T12:29:58.794Z,812.00
2019-06-08T12:30:55.975Z,372.00
2019-06-08T12:31:58.380Z,404.00
2019-06-08T12:32:58.038Z,244.00
2019-06-08T12:33:58.616Z,220.00
2019-06-08T12:34:59.783Z,228.00
2019-06-08T12:35:57.912Z,220.00
2019-06-08T12:36:58.173Z,220.00
2019-06-08T12:37:58.119Z,176.00
2019-06-08T12:38:55.888Z,224.00
2019-06-08T12:39:57.974Z,384.00
2019-06-08T12:40:58.717Z,572.00
2019-06-08T12:41:58.203Z,656.00
2019-06-08T12:42:59.465Z,604.00
2019-06-08T12:43:57.941Z,788.00